Time;durP1;ratioP1;P1;durP2;ratioP2;P2;SDS_P1;SDS_P2;PMS_P1;PMS_P2;Temp;Humidity;BMP_temperature;BMP_pressure;BME280_temperature;BME280_humidity;BME280_pressure;Samples;Min_cycle;Max_cycle;Signal;HPM_P1;HPM_P2
2022/10/25 00:00:19;;;;;;;4.17;1.80;;;;;;;11.88;100.00;100031.88;4945667;28;20192;-69
2022/10/25 00:02:44;;;;;;;5.50;1.90;;;;;;;11.81;100.00;100033.16;4955611;28;20198;-69
2022/10/25 00:05:14;;;;;;;5.17;2.20;;;;;;;11.58;100.00;100027.66;4971675;28;20185;-72
2022/10/25 00:07:39;;;;;;;8.33;2.23;;;;;;;11.63;100.00;100030.78;4955001;28;20623;-69
2022/10/25 00:10:05;;;;;;;9.50;1.93;;;;;;;11.59;100.00;100030.13;4961538;28;20279;-69
2022/10/25 00:12:31;;;;;;;7.13;2.23;;;;;;;11.55;100.00;100035.59;4955355;28;20184;-69
2022/10/25 00:15:00;;;;;;;4.70;1.80;;;;;;;11.56;100.00;100040.63;4971398;28;20259;-69
2022/10/25 00:17:26;;;;;;;4.23;2.00;;;;;;;11.25;100.00;100049.31;4954278;28;20184;-69
2022/10/25 00:19:51;;;;;;;7.33;2.10;;;;;;;11.25;100.00;100042.44;4954931;28;20211;-69
2022/10/25 00:22:16;;;;;;;7.67;2.00;;;;;;;11.31;100.00;100051.53;4961673;28;20219;-69
2022/10/25 00:24:41;;;;;;;7.07;2.17;;;;;;;11.09;100.00;100047.66;4971313;28;20204;-69
2022/10/25 00:27:07;;;;;;;7.30;2.67;;;;;;;11.07;100.00;100049.47;5018481;28;20190;-69
2022/10/25 00:29:32;;;;;;;5.87;2.20;;;;;;;11.14;100.00;100053.34;5032417;28;20205;-68
2022/10/25 00:31:58;;;;;;;6.30;2.77;;;;;;;11.10;100.00;100053.63;4987902;28;20267;-69
2022/10/25 00:34:23;;;;;;;9.53;2.50;;;;;;;10.74;100.00;100045.34;5010559;28;20226;-69
2022/10/25 00:36:48;;;;;;;6.63;2.63;;;;;;;10.79;100.00;100048.47;5011812;28;20269;-69
2022/10/25 00:39:13;;;;;;;9.10;2.90;;;;;;;10.78;100.00;100056.28;5012520;28;20183;-69
2022/10/25 00:41:39;;;;;;;4.77;2.57;;;;;;;10.60;100.00;100051.22;5021905;28;20319;-69
2022/10/25 00:44:35;;;;;;;8.83;2.27;;;;;;;10.57;100.00;100042.88;5015170;28;20245;-69
2022/10/25 00:47:21;;;;;;;5.60;2.30;;;;;;;10.44;100.00;100048.69;5020574;28;20494;-69
2022/10/25 00:50:01;;;;;;;7.33;2.67;;;;;;;10.53;100.00;100051.66;4980571;28;20654;-69
2022/10/25 00:52:31;;;;;;;6.53;2.20;;;;;;;10.55;100.00;100066.09;4997955;28;20229;-69
2022/10/25 00:54:57;;;;;;;5.83;2.23;;;;;;;10.57;100.00;100066.03;5028361;28;20233;-69
2022/10/25 00:57:35;;;;;;;4.83;2.67;;;;;;;10.52;100.00;100070.56;5066512;28;20180;-69
2022/10/25 01:00:02;;;;;;;7.03;2.20;;;;;;;10.76;100.00;100076.13;5034213;28;20310;-68
2022/10/25 01:02:27;;;;;;;6.00;1.97;;;;;;;10.88;100.00;100067.72;5020545;28;20568;-68
2022/10/25 01:04:52;;;;;;;6.77;2.23;;;;;;;10.96;100.00;100064.69;5031753;28;20227;-68
2022/10/25 01:07:18;;;;;;;4.83;1.60;;;;;;;11.19;100.00;100063.41;5031361;28;20178;-69
2022/10/25 01:09:43;;;;;;;4.83;1.73;;;;;;;11.31;100.00;100061.84;5031686;28;20292;-69
2022/10/25 01:12:09;;;;;;;5.60;2.17;;;;;;;11.40;100.00;100063.91;5052976;28;20274;-69
2022/10/25 01:14:36;;;;;;;6.63;1.83;;;;;;;11.58;100.00;100061.16;5036563;28;20297;-69
2022/10/25 01:17:21;;;;;;;2.60;1.47;;;;;;;11.60;100.00;100067.88;5063179;28;20182;-70
2022/10/25 01:19:59;;;;;;;6.00;1.60;;;;;;;11.59;100.00;100063.63;5063871;28;20606;-69
2022/10/25 01:22:41;;;;;;;5.77;1.47;;;;;;;11.57;100.00;100064.63;5036727;28;20221;-69
2022/10/25 01:25:36;;;;;;;9.97;2.17;;;;;;;11.48;100.00;100070.34;5063296;28;20326;-69
2022/10/25 01:28:33;;;;;;;3.63;1.60;;;;;;;11.46;100.00;100070.41;5021819;28;20706;-69
2022/10/25 01:31:15;;;;;;;8.87;1.63;;;;;;;11.46;100.00;100070.41;5030561;28;20235;-69
2022/10/25 01:33:50;;;;;;;6.20;1.97;;;;;;;11.50;100.00;100068.50;5036450;28;20233;-69
2022/10/25 01:36:22;;;;;;;5.37;1.83;;;;;;;11.61;100.00;100072.09;5029535;28;20200;-69
2022/10/25 01:39:04;;;;;;;5.57;1.90;;;;;;;11.64;100.00;100065.94;5030114;28;20192;-69
2022/10/25 01:41:47;;;;;;;4.47;1.30;;;;;;;11.63;100.00;100061.69;5035158;28;20216;-70
2022/10/25 01:44:48;;;;;;;7.27;1.50;;;;;;;11.68;100.00;100058.84;5031956;28;20650;-69
2022/10/25 01:47:21;;;;;;;4.67;1.67;;;;;;;11.76;100.00;100049.75;5021333;28;20636;-70
2022/10/25 01:49:52;;;;;;;6.43;1.70;;;;;;;11.85;100.00;100048.34;5043406;28;20184;-69
2022/10/25 01:52:19;;;;;;;7.00;1.80;;;;;;;11.86;100.00;100054.34;5029103;28;20220;-69
2022/10/25 01:54:45;;;;;;;3.63;1.47;;;;;;;11.75;100.00;100049.84;5030001;28;20337;-70
2022/10/25 01:57:38;;;;;;;6.00;1.47;;;;;;;11.56;100.00;100055.25;5037023;28;20264;-70
2022/10/25 02:00:36;;;;;;;5.30;1.93;;;;;;;11.59;100.00;100060.22;5023534;28;20186;-67
2022/10/25 02:03:26;;;;;;;7.20;2.10;;;;;;;11.54;100.00;100065.66;5041449;28;20224;-69
2022/10/25 02:06:23;;;;;;;10.43;1.97;;;;;;;11.55;100.00;100069.88;5029992;28;20252;-69
2022/10/25 02:09:18;;;;;;;2.90;1.17;;;;;;;11.60;100.00;100065.28;5030175;28;20703;-69
2022/10/25 02:11:43;;;;;;;4.30;1.70;;;;;;;11.66;100.00;100066.69;5034764;28;20768;-69
2022/10/25 02:14:25;;;;;;;5.00;1.53;;;;;;;11.63;100.00;100059.97;5038528;28;20217;-69
2022/10/25 02:17:06;;;;;;;4.57;1.97;;;;;;;11.58;100.00;100063.72;5031278;28;20193;-69
2022/10/25 02:19:48;;;;;;;6.50;1.80;;;;;;;11.55;100.00;100067.31;5063466;28;20186;-69
2022/10/25 02:22:15;;;;;;;5.13;1.90;;;;;;;11.57;100.00;100067.22;5054673;28;20722;-69
2022/10/25 02:24:44;;;;;;;9.57;1.50;;;;;;;11.57;100.00;100067.22;5063145;28;20214;-69
2022/10/25 02:27:11;;;;;;;5.73;1.47;;;;;;;11.53;100.00;100055.44;5029959;28;20178;-68
2022/10/25 02:29:38;;;;;;;9.80;1.87;;;;;;;11.51;100.00;100068.41;5029878;28;20189;-69
2022/10/25 02:32:04;;;;;;;3.90;1.53;;;;;;;11.46;100.00;100062.69;5039321;28;20244;-69
2022/10/25 02:34:30;;;;;;;5.00;1.80;;;;;;;11.43;100.00;100057.72;5062637;28;20339;-69
2022/10/25 02:36:56;;;;;;;8.27;2.07;;;;;;;11.40;100.00;100066.47;5063105;28;20653;-69
2022/10/25 02:39:24;;;;;;;7.53;1.80;;;;;;;11.52;100.00;100058.94;5030984;28;20170;-69
2022/10/25 02:41:49;;;;;;;5.73;1.63;;;;;;;11.49;100.00;100062.53;5051000;28;20223;-69
2022/10/25 02:44:14;;;;;;;5.37;1.77;;;;;;;11.62;100.00;100065.19;5038338;28;20264;-69
2022/10/25 02:46:40;;;;;;;4.27;1.47;;;;;;;11.62;100.00;100060.88;5037587;28;20174;-69
2022/10/25 02:49:05;;;;;;;7.70;1.60;;;;;;;11.72;100.00;100061.16;5034908;28;20193;-71
2022/10/25 02:51:30;;;;;;;5.50;1.70;;;;;;;11.82;100.00;100064.00;5047719;28;20272;-70
2022/10/25 02:53:56;;;;;;;2.43;1.40;;;;;;;11.72;100.00;100061.16;5042669;28;20613;-69
2022/10/25 02:56:22;;;;;;;4.53;1.60;;;;;;;11.78;100.00;100063.38;5033160;28;20255;-69
2022/10/25 02:58:50;;;;;;;4.60;1.83;;;;;;;11.78;100.00;100060.78;5045550;28;20533;-69
2022/10/25 03:01:17;;;;;;;3.70;1.53;;;;;;;11.77;100.00;100061.72;5048391;28;20674;-70
2022/10/25 03:03:43;;;;;;;2.53;1.40;;;;;;;11.83;100.00;100070.00;5065829;28;20170;-69
2022/10/25 03:06:09;;;;;;;8.10;2.20;;;;;;;11.80;100.00;100065.84;5033834;28;20284;-69
2022/10/25 03:08:36;;;;;;;4.93;1.73;;;;;;;11.76;100.00;100072.13;5031816;28;20186;-69
2022/10/25 03:11:02;;;;;;;5.37;1.70;;;;;;;11.69;100.00;100063.91;5058942;28;20343;-69
2022/10/25 03:13:27;;;;;;;4.47;1.40;;;;;;;11.85;100.00;100068.16;5046327;28;20235;-69
2022/10/25 03:15:52;;;;;;;5.80;1.70;;;;;;;11.70;100.00;100068.16;5037436;28;20225;-68
2022/10/25 03:18:18;;;;;;;8.60;1.90;;;;;;;11.83;100.00;100073.38;5051341;28;20182;-69
2022/10/25 03:20:43;;;;;;;6.07;1.67;;;;;;;11.68;100.00;100082.03;5034610;28;20236;-69
2022/10/25 03:23:10;;;;;;;6.90;1.67;;;;;;;11.73;100.00;100082.59;5026554;28;20170;-69
2022/10/25 03:25:35;;;;;;;4.50;1.50;;;;;;;11.86;100.00;100086.09;5065242;28;20613;-70
2022/10/25 03:28:01;;;;;;;3.27;1.30;;;;;;;11.73;100.00;100080.88;5033050;28;20186;-69
2022/10/25 03:30:27;;;;;;;4.27;1.80;;;;;;;11.82;100.00;100086.38;5009053;28;20241;-69
2022/10/25 03:32:53;;;;;;;4.97;1.77;;;;;;;11.78;100.00;100086.56;5044839;28;20549;-69
2022/10/25 03:35:19;;;;;;;6.10;1.80;;;;;;;11.83;100.00;100082.88;5051213;28;20221;-68
2022/10/25 03:37:44;;;;;;;5.53;1.60;;;;;;;11.75;100.00;100083.34;5052549;28;20178;-69
2022/10/25 03:40:10;;;;;;;5.90;2.27;;;;;;;11.78;100.00;100080.56;5043941;28;20216;-68
2022/10/25 03:42:35;;;;;;;5.67;1.70;;;;;;;11.76;100.00;100079.84;5050352;28;20192;-70
2022/10/25 03:45:01;;;;;;;11.10;2.43;;;;;;;11.63;100.00;100078.00;5053692;28;20181;-69
2022/10/25 03:47:26;;;;;;;8.90;2.20;;;;;;;11.44;100.00;100077.41;5052588;28;20181;-69
2022/10/25 03:49:51;;;;;;;7.33;2.00;;;;;;;11.54;100.00;100083.69;5035124;28;20170;-70
2022/10/25 03:52:16;;;;;;;9.67;2.30;;;;;;;11.57;100.00;100077.53;5057965;28;20283;-70
2022/10/25 03:54:42;;;;;;;5.87;1.80;;;;;;;11.58;100.00;100079.19;5068021;28;20213;-69
2022/10/25 03:57:07;;;;;;;7.70;2.07;;;;;;;11.60;100.00;100085.91;5057536;28;20177;-69
2022/10/25 03:59:33;;;;;;;9.00;1.70;;;;;;;11.50;100.00;100089.94;5059108;28;20648;-69
2022/10/25 04:01:59;;;;;;;3.07;1.87;;;;;;;11.51;100.00;100098.47;5057429;28;20212;-69
2022/10/25 04:04:24;;;;;;;5.30;2.40;;;;;;;11.44;100.00;100101.41;5034745;28;20177;-69
2022/10/25 04:06:50;;;;;;;6.27;2.00;;;;;;;11.39;100.00;100095.72;5051435;28;20260;-69
2022/10/25 04:09:15;;;;;;;8.17;2.20;;;;;;;11.25;100.00;100099.09;5052198;28;20236;-69
2022/10/25 04:11:40;;;;;;;6.17;2.03;;;;;;;11.20;100.00;100095.09;5041222;28;20252;-69
2022/10/25 04:14:05;;;;;;;6.47;2.13;;;;;;;11.22;100.00;100098.44;5053693;28;20515;-70
2022/10/25 04:16:31;;;;;;;6.80;2.47;;;;;;;11.24;100.00;100100.00;5052370;28;20185;-69
2022/10/25 04:18:57;;;;;;;6.10;2.00;;;;;;;11.22;100.00;100114.69;5052371;28;20263;-69
2022/10/25 04:21:23;;;;;;;6.63;2.30;;;;;;;11.18;100.00;100112.41;5041561;28;20644;-68
2022/10/25 04:23:49;;;;;;;10.33;2.53;;;;;;;11.13;100.00;100115.25;5046589;28;20268;-68
2022/10/25 04:26:16;;;;;;;11.50;3.17;;;;;;;11.12;100.00;100118.72;5052014;28;20189;-72
2022/10/25 04:28:42;;;;;;;12.00;3.40;;;;;;;10.98;100.00;100112.59;5034411;28;20181;-70
2022/10/25 04:31:08;;;;;;;4.80;2.60;;;;;;;10.92;100.00;100119.84;5033140;28;20224;-69
2022/10/25 04:33:33;;;;;;;8.17;3.23;;;;;;;10.93;100.00;100116.38;5059075;28;20229;-69
2022/10/25 04:35:58;;;;;;;5.57;2.60;;;;;;;10.78;100.00;100118.88;5052088;28;20185;-71
2022/10/25 04:38:24;;;;;;;6.87;3.20;;;;;;;10.75;100.00;100116.44;5051378;28;20640;-69
2022/10/25 04:40:54;;;;;;;9.60;3.17;;;;;;;10.78;100.00;100124.00;5025065;28;20221;-69
2022/10/25 04:43:19;;;;;;;7.37;3.23;;;;;;;10.71;100.00;100130.41;5047173;28;20196;-69
2022/10/25 04:45:45;;;;;;;8.17;3.40;;;;;;;10.66;100.00;100130.63;5060388;28;20185;-70
2022/10/25 04:48:10;;;;;;;10.77;3.27;;;;;;;10.66;100.00;100127.25;5052991;28;20189;-70
2022/10/25 04:50:37;;;;;;;9.23;3.27;;;;;;;10.72;100.00;100121.78;5045707;28;20228;-71
2022/10/25 04:53:03;;;;;;;10.87;3.80;;;;;;;10.73;100.00;100120.00;5045683;28;20181;-70
2022/10/25 04:55:28;;;;;;;11.07;3.53;;;;;;;10.68;100.00;100127.16;5033993;28;20205;-69
2022/10/25 04:57:54;;;;;;;7.77;3.43;;;;;;;10.52;100.00;100132.31;5063095;28;20659;-69
2022/10/25 05:00:19;;;;;;;14.80;3.83;;;;;;;10.39;100.00;100127.00;5043724;28;20213;-69
2022/10/25 05:02:45;;;;;;;10.43;4.10;;;;;;;10.17;100.00;100122.94;5064803;28;20633;-69
2022/10/25 05:05:10;;;;;;;11.13;4.10;;;;;;;9.99;100.00;100132.47;5051118;28;20181;-70
2022/10/25 05:07:35;;;;;;;8.73;3.40;;;;;;;10.07;100.00;100139.75;5051091;28;20203;-70
2022/10/25 05:10:01;;;;;;;10.57;3.97;;;;;;;10.00;100.00;100134.94;5051334;28;20662;-71
2022/10/25 05:12:26;;;;;;;7.33;3.40;;;;;;;10.00;100.00;100134.13;5056264;28;20217;-69
2022/10/25 05:14:51;;;;;;;13.73;4.17;;;;;;;10.05;100.00;100136.44;5056269;28;20617;-69
2022/10/25 05:17:16;;;;;;;9.77;2.83;;;;;;;10.08;100.00;100138.88;5050795;28;20589;-69
2022/10/25 05:19:42;;;;;;;8.93;2.87;;;;;;;10.08;100.00;100141.44;5051414;28;20188;-69
2022/10/25 05:22:07;;;;;;;13.50;3.40;;;;;;;9.97;100.00;100141.97;5056425;28;20250;-70
2022/10/25 05:24:32;;;;;;;14.63;3.63;;;;;;;9.95;100.00;100134.34;5033643;28;20188;-69
2022/10/25 05:26:58;;;;;;;7.10;3.40;;;;;;;9.97;100.00;100137.69;5051009;28;20208;-69
2022/10/25 05:29:23;;;;;;;12.10;3.30;;;;;;;9.96;100.00;100142.88;5051264;28;20350;-70
2022/10/25 05:31:48;;;;;;;11.13;3.77;;;;;;;10.01;100.00;100143.50;5054684;28;20675;-69
2022/10/25 05:34:13;;;;;;;9.10;4.33;;;;;;;10.01;100.00;100149.47;5052622;28;20323;-69
2022/10/25 05:36:39;;;;;;;8.17;3.77;;;;;;;10.01;100.00;100139.19;5050650;28;20194;-69
2022/10/25 05:39:04;;;;;;;9.57;3.57;;;;;;;9.98;100.00;100128.22;5050975;28;20196;-70
2022/10/25 05:41:29;;;;;;;14.03;4.07;;;;;;;10.04;100.00;100132.22;5045617;28;20406;-70
2022/10/25 05:43:56;;;;;;;8.67;3.60;;;;;;;10.26;100.00;100144.78;5055501;28;20181;-69
2022/10/25 05:46:23;;;;;;;9.60;3.80;;;;;;;10.43;100.00;100154.19;5042496;28;20188;-70
2022/10/25 05:48:49;;;;;;;9.13;3.40;;;;;;;10.58;100.00;100161.13;5033218;28;20181;-70
2022/10/25 05:51:25;;;;;;;7.97;3.37;;;;;;;10.81;100.00;100161.59;5032386;28;20293;-69
2022/10/25 05:53:53;;;;;;;10.10;3.60;;;;;;;11.05;100.00;100158.59;5038402;28;20197;-70
2022/10/25 05:56:21;;;;;;;13.60;2.93;;;;;;;11.13;100.00;100164.16;5032387;28;20185;-70
2022/10/25 05:58:46;;;;;;;6.33;2.87;;;;;;;11.33;100.00;100165.59;5044417;28;20272;-70
2022/10/25 06:01:17;;;;;;;7.50;3.13;;;;;;;11.46;100.00;100171.72;5049945;28;20308;-70
2022/10/25 06:03:42;;;;;;;8.10;2.93;;;;;;;11.64;100.00;100166.41;5037785;28;20173;-70
2022/10/25 06:06:09;;;;;;;10.33;2.90;;;;;;;11.81;100.00;100174.91;5050444;28;20678;-70
2022/10/25 06:08:36;;;;;;;11.17;3.23;;;;;;;11.71;100.00;100172.88;5031512;28;20197;-70
2022/10/25 06:11:07;;;;;;;5.80;2.63;;;;;;;11.96;100.00;100174.06;5022294;28;20239;-70
2022/10/25 06:13:33;;;;;;;4.83;3.10;;;;;;;12.04;100.00;100173.59;5044657;28;20269;-70
2022/10/25 06:16:05;;;;;;;6.67;2.43;;;;;;;12.10;100.00;100180.97;5030063;28;20184;-71
2022/10/25 06:18:32;;;;;;;10.27;3.37;;;;;;;12.21;100.00;100185.47;5035259;28;20181;-71
2022/10/25 06:21:12;;;;;;;7.77;3.00;;;;;;;12.30;100.00;100182.34;5025851;28;20221;-70
2022/10/25 06:23:39;;;;;;;8.80;2.93;;;;;;;12.22;100.00;100189.72;5049662;28;20702;-70
2022/10/25 06:26:08;;;;;;;6.97;3.00;;;;;;;12.37;100.00;100187.97;5035883;28;20637;-70
2022/10/25 06:28:34;;;;;;;8.87;3.13;;;;;;;12.50;100.00;100193.19;5035593;28;20309;-69
2022/10/25 06:31:14;;;;;;;7.07;2.63;;;;;;;12.54;100.00;100199.81;5024634;28;20243;-69
2022/10/25 06:33:39;;;;;;;6.47;2.53;;;;;;;12.70;100.00;100205.72;5033281;28;20185;-69
2022/10/25 06:36:09;;;;;;;6.47;2.83;;;;;;;12.82;100.00;100208.44;5035807;28;20180;-69
2022/10/25 06:38:34;;;;;;;8.03;2.87;;;;;;;12.81;100.00;100202.44;5052533;28;20181;-70
2022/10/25 06:41:02;;;;;;;6.83;3.00;;;;;;;12.91;100.00;100205.28;5041813;28;20220;-71
2022/10/25 06:43:28;;;;;;;6.60;3.07;;;;;;;12.92;100.00;100212.13;5031343;28;20566;-70
2022/10/25 06:45:54;;;;;;;6.53;3.23;;;;;;;12.90;100.00;100204.47;5055132;28;20184;-69
2022/10/25 06:48:20;;;;;;;8.43;2.93;;;;;;;12.79;100.00;100204.31;5035100;28;20186;-69
2022/10/25 06:50:45;;;;;;;8.27;3.13;;;;;;;12.88;100.00;100211.47;5025309;28;20916;-69
2022/10/25 06:53:10;;;;;;;11.93;3.80;;;;;;;13.05;100.00;100207.03;5027097;28;20197;-71
2022/10/25 06:55:36;;;;;;;11.57;4.00;;;;;;;13.12;100.00;100215.19;5053460;28;20217;-71
2022/10/25 06:58:01;;;;;;;8.27;3.30;;;;;;;13.22;100.00;100219.69;5055473;28;20199;-63
2022/10/25 07:00:26;;;;;;;6.93;3.13;;;;;;;13.15;100.00;100215.84;5011663;28;20229;-58
2022/10/25 07:02:57;;;;;;;5.67;3.10;;;;;;;13.10;100.00;100225.63;5015869;28;20188;-57
2022/10/25 07:05:22;;;;;;;8.60;2.97;;;;;;;13.32;100.00;100224.25;5035740;28;20638;-58
2022/10/25 07:07:48;;;;;;;11.83;3.43;;;;;;;13.35;100.00;100224.88;5053398;28;20290;-58
2022/10/25 07:10:13;;;;;;;9.47;3.93;;;;;;;13.39;100.00;100221.19;5042809;28;20181;-58
2022/10/25 07:12:39;;;;;;;6.40;3.17;;;;;;;13.56;100.00;100227.88;5048266;28;20175;-58
2022/10/25 07:15:05;;;;;;;11.00;3.60;;;;;;;13.78;100.00;100223.88;5029524;28;20212;-58
2022/10/25 07:17:30;;;;;;;12.40;4.07;;;;;;;13.97;100.00;100217.50;5051065;28;20189;-58
2022/10/25 07:19:56;;;;;;;9.50;3.50;;;;;;;14.06;100.00;100222.03;5053561;28;20178;-58
2022/10/25 07:22:22;;;;;;;9.77;3.63;;;;;;;14.27;100.00;100218.94;5039837;28;20225;-57
2022/10/25 07:24:48;;;;;;;5.83;2.83;;;;;;;14.25;100.00;100223.38;5035548;28;20184;-57
2022/10/25 07:27:13;;;;;;;6.33;3.37;;;;;;;14.59;100.00;100221.09;5034775;28;20276;-69
2022/10/25 07:29:38;;;;;;;9.30;4.57;;;;;;;14.61;100.00;100222.63;5052984;28;20182;-70
2022/10/25 07:32:04;;;;;;;5.70;3.40;;;;;;;14.61;100.00;100222.63;5009813;28;20221;-70
2022/10/25 07:34:29;;;;;;;5.63;3.37;;;;;;;14.45;100.00;100222.00;5051791;28;20683;-70
2022/10/25 07:36:54;;;;;;;10.83;3.63;;;;;;;14.47;100.00;100231.31;5052836;28;20174;-70
2022/10/25 07:39:20;;;;;;;7.93;3.53;;;;;;;14.35;100.00;100243.34;5053040;28;20183;-70
2022/10/25 07:41:45;;;;;;;5.37;2.90;;;;;;;14.48;100.00;100247.69;5041727;28;20221;-69
2022/10/25 07:44:10;;;;;;;10.27;3.73;;;;;;;14.55;100.00;100248.94;5052688;28;20225;-69
2022/10/25 07:46:35;;;;;;;7.97;3.80;;;;;;;14.63;100.00;100245.81;5062575;28;20170;-70
2022/10/25 07:49:01;;;;;;;10.77;3.70;;;;;;;14.77;100.00;100250.91;5053032;28;20205;-71
2022/10/25 07:51:26;;;;;;;14.97;4.27;;;;;;;14.88;100.00;100251.91;5041614;28;20226;-69
2022/10/25 07:53:52;;;;;;;8.17;3.47;;;;;;;14.92;100.00;100254.16;5052419;28;20204;-68
2022/10/25 07:56:18;;;;;;;8.43;3.90;;;;;;;14.61;100.00;100252.84;5051971;28;20185;-69
2022/10/25 07:58:44;;;;;;;11.07;3.80;;;;;;;14.47;100.00;100248.63;5028302;28;20189;-68
2022/10/25 08:01:10;;;;;;;8.47;3.90;;;;;;;14.87;100.00;100260.59;5035169;28;20225;-69
2022/10/25 08:03:36;;;;;;;8.20;3.50;;;;;;;15.16;100.00;100264.53;5034346;28;20222;-70
2022/10/25 08:06:02;;;;;;;8.83;3.53;;;;;;;15.38;100.00;100264.75;5023850;28;20586;-71
2022/10/25 08:08:28;;;;;;;6.93;3.30;;;;;;;15.65;100.00;100261.94;5017388;28;20564;-69
2022/10/25 08:10:54;;;;;;;10.40;3.87;;;;;;;15.69;100.00;100263.38;5015275;28;20238;-70
2022/10/25 08:13:19;;;;;;;7.10;3.50;;;;;;;15.69;100.00;100273.75;5051820;28;20256;-69
2022/10/25 08:15:49;;;;;;;7.83;3.77;;;;;;;15.84;100.00;100271.81;5052032;28;20220;-69
2022/10/25 08:18:14;;;;;;;12.37;3.63;;;;;;;15.88;100.00;100270.66;5033601;28;20228;-69
2022/10/25 08:20:40;;;;;;;7.10;3.17;;;;;;;16.19;100.00;100267.53;5040422;28;20248;-69
2022/10/25 08:23:05;;;;;;;10.10;4.27;;;;;;;15.97;100.00;100269.94;5051094;28;20193;-69
2022/10/25 08:25:31;;;;;;;5.47;3.17;;;;;;;16.43;100.00;100272.63;5021183;28;20178;-71
2022/10/25 08:27:56;;;;;;;5.87;2.53;;;;;;;17.01;100.00;100271.69;5052299;28;20311;-71
2022/10/25 08:30:21;;;;;;;5.07;3.03;;;;;;;17.47;100.00;100270.59;5044726;28;20221;-70
2022/10/25 08:32:47;;;;;;;5.93;2.37;;;;;;;17.22;100.00;100267.34;5046411;28;20212;-68
2022/10/25 08:35:14;;;;;;;7.17;2.90;;;;;;;17.15;100.00;100263.59;5051958;28;20703;-68
2022/10/25 08:37:39;;;;;;;5.77;2.80;;;;;;;17.00;100.00;100259.63;5051339;28;20260;-69
2022/10/25 08:40:05;;;;;;;3.87;2.40;;;;;;;17.16;100.00;100265.25;5040478;28;20568;-67
2022/10/25 08:42:57;;;;;;;5.30;2.43;;;;;;;17.49;100.00;100273.91;5033001;28;20268;-70
2022/10/25 08:45:49;;;;;;;5.50;2.27;;;;;;;17.97;100.00;100275.22;5038300;28;20176;-70
2022/10/25 08:48:19;;;;;;;5.03;2.30;;;;;;;18.48;100.00;100272.72;5033635;28;20185;-69
2022/10/25 08:50:49;;;;;;;7.20;2.17;;;;;;;18.45;100.00;100273.00;5041132;28;20716;-70
2022/10/25 08:53:40;;;;;;;7.73;2.63;;;;;;;18.45;100.00;100279.03;5030991;28;20264;-69
2022/10/25 08:56:12;;;;;;;7.87;2.67;;;;;;;19.85;100.00;100283.44;5050485;28;20201;-71
2022/10/25 08:58:47;;;;;;;6.73;2.33;;;;;;;21.62;95.80;100280.81;5031717;28;20189;-70
2022/10/25 09:01:17;;;;;;;6.93;2.50;;;;;;;23.11;81.97;100277.13;5019408;28;20789;-71
2022/10/25 09:03:43;;;;;;;5.50;2.30;;;;;;;24.80;66.77;100280.84;5029763;28;20170;-70
2022/10/25 09:06:15;;;;;;;4.15;2.10;;;;;;;23.93;66.76;100297.38;5050810;28;20185;-70
2022/10/25 09:08:59;;;;;;;9.80;2.10;;;;;;;24.19;68.32;100296.34;5051242;28;20266;-72
2022/10/25 09:12:03;;;;;;;4.50;1.83;;;;;;;21.99;82.14;100295.47;5031892;28;20347;-69
2022/10/25 09:14:48;;;;;;;4.63;1.80;;;;;;;21.20;90.22;100295.28;5045197;28;20652;-70
2022/10/25 09:17:16;;;;;;;7.78;2.42;;;;;;;22.45;82.50;100290.03;5044337;28;20199;-70
2022/10/25 09:19:59;;;;;;;6.25;2.03;;;;;;;22.65;77.22;100292.41;5050324;28;20289;-70
2022/10/25 09:22:28;;;;;;;5.47;2.33;;;;;;;21.79;85.28;100304.50;5003695;28;20229;-71
2022/10/25 09:24:56;;;;;;;2.88;2.00;;;;;;;21.64;84.83;100312.88;5013483;28;20221;-70
2022/10/25 09:27:30;;;;;;;4.23;2.03;;;;;;;21.84;87.00;100307.47;5024677;28;20190;-71
2022/10/25 09:30:05;;;;;;;6.17;2.00;;;;;;;21.95;84.51;100309.84;5050212;28;20590;-71
2022/10/25 09:32:55;;;;;;;3.58;1.98;;;;;;;21.93;84.53;100304.75;5005522;28;20218;-71
2022/10/25 09:35:39;;;;;;;6.47;1.70;;;;;;;20.38;95.53;100309.97;5047711;28;20229;-70
2022/10/25 09:38:29;;;;;;;2.93;1.90;;;;;;;20.34;95.96;100306.81;5050086;28;20192;-62
2022/10/25 09:41:04;;;;;;;4.83;1.80;;;;;;;20.53;94.48;100308.53;5030681;28;20244;-62
2022/10/25 09:44:00;;;;;;;2.53;1.20;;;;;;;21.45;89.19;100306.78;5043808;28;20200;-61
2022/10/25 09:46:43;;;;;;;9.03;1.87;;;;;;;21.99;81.42;100303.34;5034275;28;20178;-63
2022/10/25 09:49:09;;;;;;;4.93;1.90;;;;;;;21.10;88.63;100310.22;5029644;28;20189;-62
2022/10/25 09:51:48;;;;;;;3.43;1.50;;;;;;;20.67;92.36;100306.44;5034885;28;20227;-61
2022/10/25 09:54:21;;;;;;;4.43;1.40;;;;;;;19.56;100.00;100312.94;5045219;28;20229;-61
2022/10/25 09:56:46;;;;;;;2.83;1.33;;;;;;;19.47;100.00;100316.38;5056529;28;20185;-63
2022/10/25 09:59:14;;;;;;;3.53;1.60;;;;;;;20.83;94.28;100314.50;5054614;28;20238;-63
2022/10/25 10:01:40;;;;;;;5.07;1.63;;;;;;;21.49;88.46;100314.34;5026736;28;20270;-61
2022/10/25 10:04:32;;;;;;;4.93;1.70;;;;;;;20.76;89.98;100310.81;5052245;28;20271;-62
2022/10/25 10:07:04;;;;;;;7.47;1.60;;;;;;;20.63;91.86;100318.97;5035436;28;20612;-61
2022/10/25 10:09:31;;;;;;;6.03;1.83;;;;;;;19.64;99.75;100307.03;5055079;28;20182;-62
2022/10/25 10:11:59;;;;;;;3.13;1.30;;;;;;;18.66;100.00;100319.84;5024072;28;20253;-62
2022/10/25 10:14:36;;;;;;;2.77;1.60;;;;;;;18.40;100.00;100315.06;5033465;28;20693;-63
2022/10/25 10:17:05;;;;;;;4.37;1.30;;;;;;;18.04;100.00;100312.78;5035945;28;20545;-61
2022/10/25 10:19:31;;;;;;;7.23;1.67;;;;;;;18.15;100.00;100309.31;5025597;28;20186;-62
2022/10/25 10:22:00;;;;;;;4.63;1.30;;;;;;;18.08;100.00;100317.75;5041097;28;20228;-60
2022/10/25 10:24:40;;;;;;;2.77;1.30;;;;;;;18.11;100.00;100313.13;5051835;28;20624;-61
2022/10/25 10:27:10;;;;;;;3.60;1.40;;;;;;;18.33;100.00;100314.75;5052130;28;20197;-62
2022/10/25 10:29:47;;;;;;;3.50;1.30;;;;;;;18.59;100.00;100313.50;5028882;28;20178;-62
2022/10/25 10:32:25;;;;;;;3.70;2.07;;;;;;;18.43;100.00;100316.59;5031566;28;20319;-61
2022/10/25 10:34:56;;;;;;;3.40;1.70;;;;;;;18.68;100.00;100310.09;5038719;28;20237;-63
2022/10/25 10:37:23;;;;;;;5.50;1.67;;;;;;;18.48;100.00;100304.84;5049938;28;20644;-62
2022/10/25 10:39:54;;;;;;;5.27;1.63;;;;;;;18.23;100.00;100311.25;5033080;28;20177;-61
2022/10/25 10:42:30;;;;;;;3.43;1.20;;;;;;;18.33;100.00;100309.56;5015350;28;20222;-63
2022/10/25 10:45:06;;;;;;;6.93;1.67;;;;;;;18.31;100.00;100310.66;5051262;28;20228;-63
2022/10/25 10:47:44;;;;;;;2.03;1.27;;;;;;;18.16;100.00;100303.16;5034668;28;20688;-62
2022/10/25 10:50:21;;;;;;;3.80;1.30;;;;;;;18.04;100.00;100301.56;5025120;28;20200;-62
2022/10/25 10:52:53;;;;;;;4.50;1.30;;;;;;;18.19;100.00;100295.06;5046615;28;20200;-67
2022/10/25 10:55:30;;;;;;;5.40;1.43;;;;;;;17.96;100.00;100291.81;5048505;28;20193;-62
2022/10/25 10:58:01;;;;;;;6.07;1.37;;;;;;;17.73;100.00;100298.84;5046383;28;20518;-65
2022/10/25 11:00:29;;;;;;;5.53;1.53;;;;;;;17.75;100.00;100299.56;4999021;28;20225;-61
2022/10/25 11:02:54;;;;;;;7.70;1.77;;;;;;;17.90;100.00;100293.09;5061032;28;20192;-61
2022/10/25 11:05:26;;;;;;;3.53;1.40;;;;;;;17.94;100.00;100295.44;5040318;28;20174;-62
2022/10/25 11:07:57;;;;;;;4.57;1.10;;;;;;;18.03;100.00;100292.91;5028462;28;20182;-61
2022/10/25 11:10:28;;;;;;;3.43;1.17;;;;;;;18.24;100.00;100297.28;5040834;28;20223;-61
2022/10/25 11:13:17;;;;;;;8.47;1.77;;;;;;;18.46;100.00;100301.53;5051439;28;20268;-61
2022/10/25 11:16:07;;;;;;;3.67;1.30;;;;;;;18.35;100.00;100301.63;5033459;28;20295;-61
2022/10/25 11:18:50;;;;;;;4.80;1.30;;;;;;;18.35;100.00;100306.81;5057508;28;20189;-60
2022/10/25 11:21:24;;;;;;;6.40;1.30;;;;;;;18.29;100.00;100304.72;5034401;28;20572;-61
2022/10/25 11:24:01;;;;;;;3.47;1.40;;;;;;;18.11;100.00;100307.91;5045665;28;20261;-61
2022/10/25 11:26:42;;;;;;;5.43;2.23;;;;;;;17.98;100.00;100307.28;5034847;28;20196;-60
2022/10/25 11:29:12;;;;;;;4.60;1.57;;;;;;;17.94;100.00;100309.31;5053455;28;20183;-60